64.5°F
Current conditions from King Hill
Updated every 5 minutes
 
  Thursday July 31, 2014

Station Historical Data
Daily Summary for July 23, 2012 Units:  Metric    English   Both
« Previous Day
Next Day »
Daily Weekly Monthly Yearly Custom
  High: Low: Average:
Temperature: 30.9 °C 17.8 °C 23.3 °C
Dew Point: 21.1 °C 15.6 °C 17.9 °C
Humidity: 95% 52% 73%
Wind Speed: 20.9km/h 1.6km/h 5km/h
Wind Gust: 43.5km/h - -
Wind- - SSW
Pressure: 1014.4 hPa 1001.9 hPa -
Precipitation: 23.4 mm    
Historical Graphs
 
 
Tabular Data for July 23, 2012
Time Temperature Dew Point Pressure Wind Wind Speed Wind Gust Humidity Daily Rainfall
00:05 22.2 °C 16.7 °C 1014.4 hPa SSW 1.6 km/h 9.7 km/h 71% 0 mm
00:09 22.2 °C 16.7 °C 1014.4 hPa Calm   9.7 km/h 71% 0 mm
00:15 22.2 °C 16.7 °C 1014.4 hPa SSW 1.6 km/h 8 km/h 71% 0 mm
00:20 22.3 °C 16.6 °C 1014.4 hPa SW 3.2 km/h 8 km/h 70% 0 mm
00:24 22.3 °C 16.8 °C 1014.4 hPa SW 1.6 km/h 8 km/h 71% 0 mm
00:30 22.3 °C 16.8 °C 1014.4 hPa SSW 1.6 km/h 8 km/h 71% 0 mm
00:34 22.3 °C 16.6 °C 1014.1 hPa Calm   11.3 km/h 70% 0 mm
00:39 22.4 °C 16.7 °C 1014.4 hPa SSW 1.6 km/h 11.3 km/h 70% 0 mm
00:45 22.5 °C 16.8 °C 1014.4 hPa SSW 3.2 km/h 11.3 km/h 70% 0 mm
00:50 22.6 °C 16.8 °C 1014.4 hPa SSW 1.6 km/h 8 km/h 70% 0 mm
00:54 22.6 °C 16.8 °C 1014.4 hPa Calm   8 km/h 70% 0 mm
00:59 22.5 °C 16.8 °C 1014.4 hPa SSW 1.6 km/h 8 km/h 70% 0 mm
01:05 22.4 °C 16.7 °C 1014.4 hPa SSW 1.6 km/h 11.3 km/h 70% 0 mm
01:09 22.4 °C 16.7 °C 1014.1 hPa SSW 1.6 km/h 11.3 km/h 70% 0 mm
01:14 22.3 °C 16.6 °C 1014.1 hPa Calm   9.7 km/h 70% 0 mm
01:19 22.1 °C 16.4 °C 1014.1 hPa Calm   8 km/h 70% 0 mm
01:25 21.9 °C 16.4 °C 1014.1 hPa SSW 1.6 km/h 8 km/h 71% 0 mm
01:29 21.7 °C 16.4 °C 1014.1 hPa Calm   8 km/h 72% 0 mm
01:34 21.6 °C 16.3 °C 1014.1 hPa Calm   8 km/h 72% 0 mm
01:40 21.3 °C 16.3 °C 1014.1 hPa Calm   8 km/h 73% 0 mm
01:45 21.2 °C 16.3 °C 1013.8 hPa SSW 1.6 km/h 8 km/h 74% 0 mm
01:49 21.2 °C 16.3 °C 1014.1 hPa SSW 1.6 km/h 9.7 km/h 74% 0 mm
01:54 21.2 °C 16.3 °C 1014.1 hPa Calm   12.9 km/h 74% 0 mm
02:00 21.1 °C 16.3 °C 1014.1 hPa Calm   12.9 km/h 74% 0 mm
02:05 21.1 °C 16.2 °C 1014.1 hPa Calm   9.7 km/h 74% 0 mm
02:09 21.1 °C 16.2 °C 1013.8 hPa SSW 1.6 km/h 9.7 km/h 74% 0 mm
02:14 21.1 °C 16.2 °C 1013.8 hPa SSW 3.2 km/h 14.5 km/h 74% 0 mm
02:20 21.2 °C 16.3 °C 1013.8 hPa SSW 3.2 km/h 14.5 km/h 74% 0 mm
02:24 21.2 °C 16.3 °C 1013.8 hPa Calm   11.3 km/h 74% 0 mm
02:29 21.1 °C 16.2 °C 1014.1 hPa Calm   11.3 km/h 74% 0 mm
02:34 21 °C 16.4 °C 1013.8 hPa SSW 1.6 km/h 11.3 km/h 75% 0 mm
02:39 21.1 °C 16.4 °C 1013.8 hPa SSW 1.6 km/h 14.5 km/h 75% 0 mm
02:45 21 °C 16.4 °C 1013.8 hPa SW 4.8 km/h 14.5 km/h 75% 0 mm
02:49 21 °C 16.4 °C 1013.8 hPa SSW 1.6 km/h 11.3 km/h 75% 0 mm
02:54 20.9 °C 16.3 °C 1013.8 hPa Calm   11.3 km/h 75% 0 mm
03:00 20.8 °C 16.2 °C 1013.8 hPa Calm   11.3 km/h 75% 0 mm
03:04 20.8 °C 16.2 °C 1013.8 hPa Calm   8 km/h 75% 0 mm
03:09 20.8 °C 16.2 °C 1013.8 hPa Calm   9.7 km/h 75% 0 mm
03:15 20.6 °C 16.2 °C 1013.8 hPa SSW 1.6 km/h 9.7 km/h 76% 0 mm
03:19 20.5 °C 16.1 °C 1013.8 hPa Calm   6.4 km/h 76% 0 mm
03:24 20.4 °C 16 °C 1013.8 hPa Calm   6.4 km/h 76% 0 mm
03:30 20.3 °C 15.9 °C 1013.8 hPa SSW 1.6 km/h 9.7 km/h 76% 0 mm
03:34 20.3 °C 15.9 °C 1013.8 hPa SW 1.6 km/h 9.7 km/h 76% 0 mm
03:39 20.3 °C 15.9 °C 1013.4 hPa SSW 1.6 km/h 6.4 km/h 76% 0 mm
03:44 20.3 °C 16.2 °C 1013.4 hPa Calm   8 km/h 77% 0 mm
03:50 20.3 °C 16.1 °C 1013.4 hPa South 1.6 km/h 9.7 km/h 77% 0 mm
03:54 20.2 °C 16.1 °C 1013.4 hPa Calm   9.7 km/h 77% 0 mm
03:59 20.2 °C 16.1 °C 1013.4 hPa SSW 1.6 km/h 8 km/h 77% 0 mm
04:05 20.2 °C 16.1 °C 1013.4 hPa SSW 3.2 km/h 8 km/h 77% 0 mm
04:09 20.2 °C 16.1 °C 1013.4 hPa Calm   8 km/h 77% 0 mm
04:14 20.1 °C 15.9 °C 1013.4 hPa Calm   6.4 km/h 77% 0 mm
04:19 20.1 °C 15.9 °C 1013.8 hPa Calm   6.4 km/h 77% 0 mm
04:24 20.1 °C 15.9 °C 1013.4 hPa Calm   1.6 km/h 77% 0 mm
04:29 19.9 °C 15.8 °C 1013.8 hPa Calm   6.4 km/h 77% 0 mm
04:35 19.9 °C 15.9 °C 1013.8 hPa Calm   6.4 km/h 78% 0 mm
04:39 19.9 °C 15.9 °C 1013.8 hPa Calm   6.4 km/h 78% 0 mm
04:44 19.9 °C 16 °C 1013.8 hPa SSW 1.6 km/h 6.4 km/h 78% 0 mm
04:49 20.1 °C 15.9 °C 1013.8 hPa Calm   6.4 km/h 77% 0 mm
04:54 20.2 °C 16 °C 1013.8 hPa Calm   9.7 km/h 77% 0 mm
04:59 20.2 °C 16.1 °C 1013.8 hPa SW 1.6 km/h 9.7 km/h 77% 0 mm
05:04 20.2 °C 16.1 °C 1013.4 hPa Calm   4.8 km/h 77% 0 mm
05:09 20.2 °C 16 °C 1013.8 hPa Calm   1.6 km/h 77% 0 mm
05:14 20.1 °C 15.9 °C 1013.4 hPa Calm   6.4 km/h 77% 0 mm
05:19 19.9 °C 15.8 °C 1013.4 hPa Calm   6.4 km/h 77% 0 mm
05:25 19.9 °C 15.8 °C 1013.4 hPa Calm   4.8 km/h 77% 0 mm
05:29 20 °C 15.8 °C 1013.8 hPa Calm   3.2 km/h 77% 0 mm
05:34 20 °C 15.8 °C 1013.4 hPa SW 1.6 km/h 6.4 km/h 77% 0 mm
05:40 20.1 °C 15.9 °C 1013.8 hPa Calm   9.7 km/h 77% 0 mm
05:44 20.2 °C 16.1 °C 1013.4 hPa SSW 3.2 km/h 9.7 km/h 77% 0 mm
05:49 20.3 °C 15.9 °C 1013.8 hPa SSW 3.2 km/h 11.3 km/h 76% 0 mm
05:54 20.4 °C 16 °C 1013.8 hPa Calm   11.3 km/h 76% 0 mm
05:59 20.4 °C 16.1 °C 1013.8 hPa SSW 1.6 km/h 9.7 km/h 76% 0 mm
06:05 20.4 °C 16.1 °C 1013.4 hPa Calm   9.7 km/h 76% 0 mm
06:09 20.4 °C 16.1 °C 1013.4 hPa SSW 4.8 km/h 11.3 km/h 76% 0 mm
06:14 20.6 °C 16.2 °C 1013.4 hPa SSW 6.4 km/h 14.5 km/h 76% 0 mm
06:20 20.7 °C 16.1 °C 1013.4 hPa SSW 3.2 km/h 14.5 km/h 75% 0 mm
06:25 20.8 °C 16.2 °C 1013.4 hPa SSW 3.2 km/h 14.5 km/h 75% 0 mm
06:35 20.9 °C 16.3 °C 1013.4 hPa Calm   11.3 km/h 75% 0 mm
06:39 20.9 °C 16.3 °C 1013.8 hPa SW 6.4 km/h 14.5 km/h 75% 0 mm
06:44 21.1 °C 16.5 °C 1013.8 hPa SSW 3.2 km/h 14.5 km/h 75% 0 mm
06:49 21.2 °C 16.6 °C 1013.4 hPa SSW 1.6 km/h 12.9 km/h 75% 0 mm
06:55 21.2 °C 16.6 °C 1013.4 hPa SW 4.8 km/h 12.9 km/h 75% 0 mm
06:59 21.3 °C 16.7 °C 1013.4 hPa SSW 6.4 km/h 19.3 km/h 75% 0 mm
07:04 21.4 °C 16.8 °C 1013.4 hPa SSW 3.2 km/h 19.3 km/h 75% 0 mm
07:10 21.6 °C 16.8 °C 1013.4 hPa SSW 4.8 km/h 14.5 km/h 74% 0 mm
07:14 21.7 °C 16.9 °C 1013.4 hPa SSW 4.8 km/h 17.7 km/h 74% 0 mm
07:19 21.9 °C 17.1 °C 1013.1 hPa SW 3.2 km/h 17.7 km/h 74% 0 mm
07:24 22.2 °C 17.3 °C 1013.1 hPa SW 1.6 km/h 14.5 km/h 74% 0 mm
07:29 22.2 °C 17.2 °C 1013.1 hPa SSW 8 km/h 17.7 km/h 73% 0 mm
07:34 22.3 °C 17.2 °C 1013.1 hPa SSW 8 km/h 19.3 km/h 73% 0 mm
07:39 22.3 °C 17.1 °C 1013.1 hPa SW 9.7 km/h 19.3 km/h 72% 0 mm
07:44 22.4 °C 17.2 °C 1013.1 hPa SW 9.7 km/h 24.1 km/h 72% 0 mm
07:49 22.4 °C 17.4 °C 1013.1 hPa SW 6.4 km/h 24.1 km/h 73% 0 mm
07:55 22.4 °C 17.4 °C 1013.1 hPa SW 3.2 km/h 14.5 km/h 73% 0 mm
08:04 22.6 °C 17.5 °C 1012.8 hPa SW 4.8 km/h 16.1 km/h 73% 0 mm
08:09 22.6 °C 17.6 °C 1012.8 hPa SW 4.8 km/h 16.1 km/h 73% 0 mm
08:14 22.7 °C 17.6 °C 1012.8 hPa SW 6.4 km/h 16.1 km/h 73% 0 mm
08:20 22.8 °C 17.7 °C 1012.4 hPa SSW 6.4 km/h 22.5 km/h 73% 0 mm
08:29 23 °C 17.7 °C 1012.4 hPa SSW 6.4 km/h 19.3 km/h 72% 0 mm
08:35 23 °C 17.4 °C 1012.4 hPa SW 11.3 km/h 22.5 km/h 71% 0 mm
08:39 23.1 °C 17.7 °C 1012.4 hPa SW 4.8 km/h 22.5 km/h 72% 0 mm
08:44 23.3 °C 18.2 °C 1012.4 hPa SW 4.8 km/h 14.5 km/h 73% 0 mm
08:49 23.5 °C 18.4 °C 1012.4 hPa SW 3.2 km/h 22.5 km/h 73% 0 mm
08:54 23.7 °C 17.9 °C 1012.4 hPa WSW 3.2 km/h 22.5 km/h 70% 0 mm
08:59 23.6 °C 17.8 °C 1012.4 hPa SW 9.7 km/h 20.9 km/h 70% 0 mm
09:04 23.4 °C 17.8 °C 1012.4 hPa SSW 4.8 km/h 20.9 km/h 71% 0 mm
09:10 23.3 °C 17.8 °C 1012.4 hPa SW 3.2 km/h 20.9 km/h 71% 0 mm
09:14 23.3 °C 17.8 °C 1012.4 hPa SW 8 km/h 20.9 km/h 71% 0 mm
09:20 23.4 °C 17.9 °C 1012.4 hPa SW 4.8 km/h 17.7 km/h 71% 0 mm
09:24 24 °C 18.7 °C 1012.1 hPa SSW 3.2 km/h 16.1 km/h 72% 0 mm
09:29 24.3 °C 18.7 °C 1012.1 hPa SSW 4.8 km/h 20.9 km/h 71% 0 mm
09:34 24.7 °C 18.4 °C 1012.1 hPa WSW 9.7 km/h 20.9 km/h 68% 0 mm
09:40 24.6 °C 18.3 °C 1012.1 hPa SW 9.7 km/h 17.7 km/h 68% 0 mm
09:44 24.3 °C 18.3 °C 1012.1 hPa SW 4.8 km/h 27.4 km/h 69% 0 mm
09:50 24.4 °C 18.3 °C 1012.1 hPa WSW 8 km/h 27.4 km/h 69% 0 mm
09:59 24.9 °C 18.4 °C 1012.1 hPa SW 8 km/h 20.9 km/h 67% 0 mm
10:04 25.4 °C 19.1 °C 1011.7 hPa SSW 6.4 km/h 16.1 km/h 68% 0 mm
10:09 25.6 °C 18.5 °C 1011.7 hPa SSW 11.3 km/h 24.1 km/h 65% 0 mm
10:14 25.5 °C 18.9 °C 1011.7 hPa SSW 8 km/h 24.1 km/h 67% 0 mm
10:19 25.7 °C 19.3 °C 1011.7 hPa SSW 4.8 km/h 22.5 km/h 68% 0 mm
10:24 25.9 °C 19.1 °C 1011.4 hPa SW 9.7 km/h 22.5 km/h 66% 0 mm
10:30 25.9 °C 18.6 °C 1011.7 hPa SW 12.9 km/h 22.5 km/h 64% 0 mm
10:34 25.9 °C 19.1 °C 1011.4 hPa SW 8 km/h 22.5 km/h 66% 0 mm
10:39 26.3 °C 19.7 °C 1011.4 hPa SSW 4.8 km/h 19.3 km/h 67% 0 mm
10:44 26.7 °C 19.3 °C 1011.4 hPa SSW 6.4 km/h 19.3 km/h 64% 0 mm
10:50 27 °C 19.9 °C 1011.4 hPa WSW 1.6 km/h 17.7 km/h 65% 0 mm
10:54 26.9 °C 19.8 °C 1011.4 hPa SW 6.4 km/h 24.1 km/h 65% 0 mm
10:59 26.7 °C 19.1 °C 1011.4 hPa SW 11.3 km/h 24.1 km/h 63% 0 mm
11:04 26.4 °C 18.8 °C 1011.1 hPa SW 6.4 km/h 20.9 km/h 63% 0 mm
11:09 26.4 °C 19.6 °C 1011.4 hPa West 6.4 km/h 17.7 km/h 66% 0 mm
11:14 26.7 °C 19.1 °C 1011.1 hPa WSW 6.4 km/h 17.7 km/h 63% 0 mm
11:20 27 °C 19.9 °C 1011.1 hPa WSW 8 km/h 24.1 km/h 65% 0 mm
11:24 27.3 °C 19.9 °C 1010.7 hPa South 3.2 km/h 24.1 km/h 64% 0 mm
11:29 27.6 °C 19.9 °C 1010.7 hPa South 4.8 km/h 17.7 km/h 63% 0 mm
11:34 27.9 °C 20.8 °C 1010.7 hPa SSW 3.2 km/h 17.7 km/h 65% 0 mm
11:39 28.1 °C 20.7 °C 1010.7 hPa South 6.4 km/h 14.5 km/h 64% 0 mm
11:44 27.9 °C 19.7 °C 1010.7 hPa SW 6.4 km/h 19.3 km/h 61% 0 mm
11:49 27.6 °C 19.9 °C 1010.7 hPa SSW 3.2 km/h 19.3 km/h 63% 0 mm
11:54 27.1 °C 18.9 °C 1010.7 hPa SW 4.8 km/h 19.3 km/h 61% 0 mm
11:59 26.6 °C 18.9 °C 1010.4 hPa SW 6.4 km/h 19.3 km/h 63% 0 mm
12:04 26.8 °C 19.4 °C 1010.4 hPa SW 8 km/h 16.1 km/h 64% 0 mm
12:09 27.3 °C 20.4 °C 1010.4 hPa SW 3.2 km/h 17.7 km/h 66% 0 mm
12:14 27.6 °C 19.9 °C 1010 hPa SSW 8 km/h 17.7 km/h 63% 0 mm
12:19 27.7 °C 20.1 °C 1010 hPa SSW 6.4 km/h 19.3 km/h 63% 0 mm
12:24 27.8 °C 19.8 °C 1010 hPa SW 9.7 km/h 19.3 km/h 62% 0 mm
12:30 27.8 °C 20.2 °C 1010 hPa SW 9.7 km/h 19.3 km/h 63% 0 mm
12:34 28 °C 20.8 °C 1010 hPa SSE 3.2 km/h 17.7 km/h 65% 0 mm
12:39 28.3 °C 20.3 °C 1009.7 hPa SW 9.7 km/h 19.3 km/h 62% 0 mm
12:44 28.6 °C 20.6 °C 1009.7 hPa SSW 4.8 km/h 20.9 km/h 62% 0 mm
12:49 28.8 °C 20.8 °C 1009.7 hPa SSW 6.4 km/h 20.9 km/h 62% 0 mm
12:54 28.8 °C 20.3 °C 1009.7 hPa SW 6.4 km/h 19.3 km/h 60% 0 mm
12:59 28.9 °C 20.4 °C 1009.7 hPa South 8 km/h 22.5 km/h 60% 0 mm
13:05 28.9 °C 20.4 °C 1009.4 hPa SSW 8 km/h 22.5 km/h 60% 0 mm
13:09 29.1 °C 20.3 °C 1009.4 hPa SW 8 km/h 20.9 km/h 59% 0 mm
13:14 29.2 °C 19.5 °C 1009.4 hPa SSW 4.8 km/h 20.9 km/h 56% 0 mm
13:19 29.2 °C 19.8 °C 1009.4 hPa South 4.8 km/h 17.7 km/h 57% 0 mm
13:24 29.2 °C 19.8 °C 1009.4 hPa SSW 8 km/h 19.3 km/h 57% 0 mm
13:29 29.3 °C 20.2 °C 1009 hPa SW 9.7 km/h 19.3 km/h 58% 0 mm
13:35 29.3 °C 20.4 °C 1009 hPa SSW 3.2 km/h 22.5 km/h 59% 0 mm
13:45 29.7 °C 21.1 °C 1009 hPa SSE 1.6 km/h 16.1 km/h 60% 0 mm
13:49 29.9 °C 19.9 °C 1008.7 hPa WSW 4.8 km/h 17.7 km/h 55% 0 mm
13:54 30.1 °C 20.4 °C 1008.7 hPa Calm   17.7 km/h 56% 0 mm
13:59 30.5 °C 20.7 °C 1008.4 hPa WSW 4.8 km/h 16.1 km/h 56% 0 mm
14:04 30.7 °C 20.6 °C 1008.4 hPa SSW 6.4 km/h 17.7 km/h 55% 0 mm
14:09 30.8 °C 21 °C 1008.4 hPa SW 8 km/h 17.7 km/h 56% 0 mm
14:14 30.6 °C 20.6 °C 1008.4 hPa WSW 9.7 km/h 17.7 km/h 55% 0 mm
14:19 30.6 °C 20.5 °C 1008.4 hPa SW 4.8 km/h 17.7 km/h 55% 0 mm
14:24 30.5 °C 20.7 °C 1008 hPa South 1.6 km/h 22.5 km/h 56% 0 mm
14:29 30.4 °C 20.4 °C 1008 hPa SW 8 km/h 22.5 km/h 55% 0 mm
14:35 30.6 °C 21.1 °C 1008 hPa SSE 3.2 km/h 22.5 km/h 57% 0 mm
14:39 30.8 °C 20.7 °C 1008 hPa SW 3.2 km/h 16.1 km/h 55% 0 mm
14:44 30.8 °C 20.7 °C 1007.7 hPa SW 9.7 km/h 20.9 km/h 55% 0 mm
14:49 30.8 °C 20.7 °C 1007.7 hPa SW 3.2 km/h 20.9 km/h 55% 0 mm
14:54 30.3 °C 20.6 °C 1007.3 hPa SW 8 km/h 19.3 km/h 56% 0 mm
14:59 30.1 °C 20.1 °C 1007.3 hPa WSW 6.4 km/h 19.3 km/h 55% 0 mm
15:05 30.3 °C 20.3 °C 1007.3 hPa South 3.2 km/h 19.3 km/h 55% 0 mm
15:09 30.8 °C 20.7 °C 1007.3 hPa SW 3.2 km/h 19.3 km/h 55% 0 mm
15:14 30.9 °C 19.9 °C 1007.3 hPa SW 3.2 km/h 19.3 km/h 52% 0 mm
15:19 30.8 °C 20.7 °C 1007 hPa SW 6.4 km/h 22.5 km/h 55% 0 mm
15:24 30.6 °C 20.3 °C 1007 hPa SW 8 km/h 22.5 km/h 54% 0 mm
15:29 30.6 °C 20.6 °C 1006.7 hPa WSW 3.2 km/h 22.5 km/h 55% 0 mm
15:34 30.7 °C 20.7 °C 1006.3 hPa WSW 8 km/h 19.3 km/h 55% 0 mm
15:39 30.7 °C 20.3 °C 1006.3 hPa SW 4.8 km/h 19.3 km/h 54% 0 mm
15:44 30.3 °C 19.7 °C 1006.7 hPa WSW 3.2 km/h 17.7 km/h 53% 0 mm
15:49 29.6 °C 19.6 °C 1006.3 hPa Calm   16.1 km/h 55% 0 mm
15:54 29 °C 19.3 °C 1006.3 hPa SW 4.8 km/h 16.1 km/h 56% 0 mm
15:59 28.7 °C 19.6 °C 1006.3 hPa SSE 3.2 km/h 14.5 km/h 58% 0 mm
16:04 28.5 °C 20 °C 1006 hPa Calm   14.5 km/h 60% 0 mm
16:09 28.5 °C 20 °C 1006 hPa SW 4.8 km/h 11.3 km/h 60% 0 mm
16:14 28.7 °C 19.6 °C 1005.6 hPa SSW 1.6 km/h 11.3 km/h 58% 0 mm
16:19 29.1 °C 20.3 °C 1005.6 hPa SSW 6.4 km/h 16.1 km/h 59% 0 mm
16:24 29.4 °C 20.1 °C 1005.3 hPa South 1.6 km/h 16.1 km/h 57% 0 mm
16:29 29.6 °C 20.5 °C 1005.3 hPa SW 6.4 km/h 19.3 km/h 58% 0 mm
16:34 29.9 °C 20.4 °C 1005.3 hPa South 3.2 km/h 19.3 km/h 57% 0 mm
16:39 30 °C 20.8 °C 1005.3 hPa SW 6.4 km/h 19.3 km/h 58% 0 mm
16:44 30 °C 20.3 °C 1005.3 hPa SW 6.4 km/h 19.3 km/h 56% 0 mm
16:49 29.9 °C 20.4 °C 1005 hPa SW 6.4 km/h 22.5 km/h 57% 0 mm
16:55 29.7 °C 20 °C 1005 hPa SSW 6.4 km/h 22.5 km/h 56% 0 mm
16:59 29.6 °C 20.2 °C 1005.3 hPa SSW 4.8 km/h 17.7 km/h 57% 0 mm
17:04 29.4 °C 20.3 °C 1005.3 hPa SW 4.8 km/h 19.3 km/h 58% 0 mm
17:09 29.3 °C 20.4 °C 1005.6 hPa SSW 1.6 km/h 19.3 km/h 59% 0 mm
17:14 29.2 °C 20.1 °C 1005.6 hPa SSW 8 km/h 19.3 km/h 58% 0 mm
17:19 28.9 °C 19.8 °C 1006 hPa SSW 4.8 km/h 24.1 km/h 58% 0 mm
17:24 28.8 °C 20.3 °C 1005.6 hPa WSW 3.2 km/h 24.1 km/h 60% 0 mm
17:29 28.6 °C 19.5 °C 1005.6 hPa SSW 12.9 km/h 24.1 km/h 58% 0 mm
17:34 28.3 °C 19.8 °C 1005.6 hPa SSW 4.8 km/h 24.1 km/h 60% 0 mm
17:39 28.1 °C 19.6 °C 1005.3 hPa SW 4.8 km/h 19.3 km/h 60% 0 mm
17:44 27.8 °C 19.4 °C 1005.6 hPa SW 9.7 km/h 30.6 km/h 60% 0 mm
17:49 27.7 °C 19.7 °C 1005.3 hPa SW 9.7 km/h 30.6 km/h 62% 0 mm
17:54 27.2 °C 19.1 °C 1005.6 hPa SW 9.7 km/h 33.8 km/h 61% 0 mm
17:59 26.1 °C 17.7 °C 1005.3 hPa SW 16.1 km/h 33.8 km/h 60% 0 mm
18:05 25.2 °C 17.9 °C 1005.3 hPa SSW 8 km/h 33.8 km/h 64% 0 mm
18:09 24.7 °C 17.4 °C 1005 hPa SSW 4.8 km/h 25.7 km/h 64% 0 mm
18:14 24.1 °C 18 °C 1005 hPa SW 6.4 km/h 25.7 km/h 69% 0 mm
18:19 23.6 °C 18.5 °C 1005 hPa SW 4.8 km/h 16.1 km/h 73% 0 mm
18:24 23.3 °C 18.4 °C 1005 hPa SW 3.2 km/h 16.1 km/h 74% 0 mm
18:29 23.1 °C 18.2 °C 1005 hPa SSW 6.4 km/h 14.5 km/h 74% 0 mm
18:34 22.9 °C 18.3 °C 1004.6 hPa SSW 4.8 km/h 14.5 km/h 75% 0 mm
18:39 22.7 °C 18.3 °C 1004.3 hPa Calm   12.9 km/h 76% 0 mm
18:44 22.7 °C 18.2 °C 1003.6 hPa SSW 1.6 km/h 11.3 km/h 76% 0 mm
18:49 22.6 °C 18.4 °C 1004.3 hPa Calm   11.3 km/h 77% 0 mm
18:54 22.4 °C 18.8 °C 1008.7 hPa NW 20.9 km/h 38.6 km/h 80% 1.5 mm
18:59 20.8 °C 17 °C 1009.4 hPa WNW 6.4 km/h 43.5 km/h 79% 6.1 mm
19:05 19.5 °C 16.3 °C 1008.4 hPa WSW 9.7 km/h 43.5 km/h 82% 11.2 mm
19:09 18.8 °C 15.8 °C 1006.7 hPa SSW 8 km/h 25.7 km/h 83% 13.7 mm
19:15 18.5 °C 15.6 °C 1006.3 hPa Calm   22.5 km/h 83% 13.7 mm
19:19 18.3 °C 15.6 °C 1006.7 hPa Calm   14.5 km/h 84% 13.7 mm
19:24 18.3 °C 15.7 °C 1007 hPa Calm   4.8 km/h 85% 14.2 mm
19:30 18.3 °C 16.1 °C 1007 hPa Calm     87% 14.5 mm
19:34 18.4 °C 16.4 °C 1007 hPa Calm     88% 14.7 mm
19:39 18.3 °C 16.3 °C 1007 hPa Calm     88% 15.2 mm
19:44 18.3 °C 16.5 °C 1006.7 hPa Calm     89% 15.2 mm
19:49 18.3 °C 16.5 °C 1006.7 hPa Calm     89% 15.5 mm
19:54 18.3 °C 16.5 °C 1006.3 hPa Calm     89% 15.7 mm
19:59 18.3 °C 16.7 °C 1006.3 hPa Calm     90% 15.7 mm
20:04 18.3 °C 16.6 °C 1006.3 hPa Calm     90% 16 mm
20:09 18.2 °C 16.6 °C 1006 hPa Calm     90% 16.3 mm
20:14 18.2 °C 16.5 °C 1006 hPa Calm     90% 16.8 mm
20:19 18.1 °C 16.6 °C 1006 hPa Calm   1.6 km/h 91% 19.6 mm
20:24 18.1 °C 16.6 °C 1006 hPa SE 1.6 km/h 8 km/h 91% 21.6 mm
20:29 18 °C 16.5 °C 1006.3 hPa Calm   8 km/h 91% 21.6 mm
20:34 18 °C 16.7 °C 1006.7 hPa Calm   4.8 km/h 92% 22.1 mm
20:39 18 °C 16.7 °C 1006.7 hPa SSW 3.2 km/h 14.5 km/h 92% 22.6 mm
20:44 18 °C 16.7 °C 1006.3 hPa SSW 3.2 km/h 14.5 km/h 92% 22.9 mm
20:49 17.9 °C 16.6 °C 1006 hPa Calm   17.7 km/h 92% 22.9 mm
20:54 17.9 °C 16.6 °C 1005.6 hPa SSW 1.6 km/h 17.7 km/h 92% 22.9 mm
20:59 17.9 °C 16.6 °C 1005.6 hPa SSE 3.2 km/h 16.1 km/h 92% 22.9 mm
21:04 17.9 °C 16.7 °C 1005.6 hPa SSW 3.2 km/h 20.9 km/h 93% 22.9 mm
21:10 17.9 °C 16.7 °C 1005.3 hPa SSW 1.6 km/h 20.9 km/h 93% 22.9 mm
21:14 17.8 °C 16.7 °C 1005.3 hPa SSW 1.6 km/h 12.9 km/h 93% 22.9 mm
21:19 17.8 °C 16.7 °C 1005.3 hPa Calm   12.9 km/h 93% 22.9 mm
21:24 17.8 °C 16.7 °C 1005.3 hPa Calm   11.3 km/h 93% 22.9 mm
21:29 17.8 °C 16.7 °C 1005.6 hPa SSW 1.6 km/h 11.3 km/h 93% 22.9 mm
21:34 17.8 °C 16.7 °C 1005.3 hPa Calm   11.3 km/h 93% 22.9 mm
21:39 17.8 °C 16.7 °C 1005.3 hPa Calm   11.3 km/h 93% 22.9 mm
21:44 17.8 °C 16.7 °C 1005 hPa Calm     93% 22.9 mm
21:49 17.8 °C 16.7 °C 1005 hPa Calm   4.8 km/h 93% 22.9 mm
21:54 17.8 °C 16.7 °C 1004.6 hPa Calm   4.8 km/h 93% 22.9 mm
21:59 17.8 °C 16.7 °C 1004.3 hPa Calm   1.6 km/h 93% 22.9 mm
22:04 17.8 °C 16.7 °C 1004.3 hPa Calm   1.6 km/h 93% 22.9 mm
22:09 17.8 °C 16.8 °C 1004.3 hPa Calm     94% 22.9 mm
22:14 17.8 °C 16.8 °C 1003.9 hPa SW 3.2 km/h 8 km/h 94% 22.9 mm
22:19 17.8 °C 16.8 °C 1004.3 hPa Calm   8 km/h 94% 22.9 mm
22:24 17.8 °C 16.8 °C 1004.3 hPa Calm   8 km/h 94% 22.9 mm
22:29 17.8 °C 16.8 °C 1003.9 hPa Calm   6.4 km/h 94% 22.9 mm
22:34 17.9 °C 16.9 °C 1003.6 hPa SSW 4.8 km/h 17.7 km/h 94% 22.9 mm
22:39 18.1 °C 17.1 °C 1002.9 hPa SW 4.8 km/h 19.3 km/h 94% 22.9 mm
22:44 18.1 °C 17.1 °C 1003.3 hPa SSW 4.8 km/h 19.3 km/h 94% 22.9 mm
22:49 18.2 °C 17.2 °C 1002.9 hPa SSW 3.2 km/h 17.7 km/h 94% 23.1 mm
22:54 18.2 °C 17.2 °C 1002.6 hPa SW 3.2 km/h 27.4 km/h 94% 23.4 mm
22:59 18.3 °C 17.3 °C 1002.3 hPa SSW 3.2 km/h 27.4 km/h 94% 23.4 mm
23:04 18.4 °C 17.4 °C 1002.3 hPa SSW 1.6 km/h 19.3 km/h 94% 23.4 mm
23:09 18.5 °C 17.5 °C 1002.3 hPa SSW 3.2 km/h 16.1 km/h 94% 23.4 mm
23:14 18.6 °C 17.6 °C 1002.3 hPa SSW 1.6 km/h 16.1 km/h 94% 23.4 mm
23:19 18.8 °C 17.8 °C 1002.3 hPa SW 1.6 km/h 16.1 km/h 94% 23.4 mm
23:24 18.8 °C 18 °C 1001.9 hPa SSW 3.2 km/h 12.9 km/h 95% 23.4 mm
23:29 18.9 °C 18.1 °C 1001.9 hPa SSW 3.2 km/h 14.5 km/h 95% 23.4 mm
23:34 19.1 °C 18.2 °C 1001.9 hPa SW 1.6 km/h 17.7 km/h 95% 23.4 mm
23:39 19.2 °C 18.4 °C 1002.6 hPa SW 4.8 km/h 19.3 km/h 95% 23.4 mm
23:44 19.4 °C 18.6 °C 1002.9 hPa Calm   19.3 km/h 95% 23.4 mm
23:49 19.6 °C 18.7 °C 1004.3 hPa Calm   14.5 km/h 95% 23.4 mm
23:54 19.3 °C 18.5 °C 1003.9 hPa NE 3.2 km/h 17.7 km/h 95% 23.4 mm
23:59 19 °C 18.2 °C 1003.3 hPa ENE 8 km/h 30.6 km/h 95% 23.4 mm
Westford Weather
Compliments of Weather Underground

 
 
Current Radar Loop:

Copyright © WestfordWeather.net 2007-2014. All rights reserved.